createdAt,value
2018-11-21T00:01:05.745Z,11.10
2018-11-21T00:03:35.777Z,12.00
2018-11-21T00:06:06.665Z,12.20
2018-11-21T00:08:36.725Z,13.03
2018-11-21T00:11:06.866Z,11.87
2018-11-21T00:13:38.454Z,12.40
2018-11-21T00:16:09.200Z,13.90
2018-11-21T00:18:39.770Z,13.40
2018-11-21T00:21:10.426Z,12.50
2018-11-21T00:23:41.117Z,13.62
2018-11-21T00:26:11.620Z,13.93
2018-11-21T00:28:42.109Z,14.47
2018-11-21T00:31:12.918Z,14.60
2018-11-21T00:33:43.801Z,13.50
2018-11-21T00:36:14.671Z,13.18
2018-11-21T00:38:45.170Z,13.50
2018-11-21T00:41:15.819Z,14.30
2018-11-21T00:43:46.735Z,13.80
2018-11-21T00:46:16.833Z,13.33
2018-11-21T00:48:47.994Z,14.23
2018-11-21T00:51:18.421Z,14.83
2018-11-21T00:53:49.003Z,15.53
2018-11-21T00:56:19.404Z,15.27
2018-11-21T00:58:49.826Z,14.57
2018-11-21T01:01:20.375Z,14.73
2018-11-21T01:03:50.838Z,15.03
2018-11-21T01:06:20.888Z,15.13
2018-11-21T01:08:50.935Z,15.23
2018-11-21T01:11:22.095Z,15.58
2018-11-21T01:13:52.721Z,14.80
2018-11-21T01:16:23.025Z,13.20
2018-11-21T01:18:53.789Z,13.77
2018-11-21T01:21:23.940Z,14.43
2018-11-21T01:23:53.960Z,13.33
2018-11-21T01:26:25.123Z,12.87
2018-11-21T01:28:56.482Z,14.03
2018-11-21T01:31:27.069Z,15.40
2018-11-21T01:33:58.116Z,13.60
2018-11-21T01:36:28.370Z,14.00
2018-11-21T01:38:59.461Z,13.30
2018-11-21T01:41:29.849Z,14.50
2018-11-21T01:44:00.224Z,12.60
2018-11-21T01:46:31.165Z,12.50
2018-11-21T01:49:01.524Z,13.20
2018-11-21T01:51:32.710Z,13.90
2018-11-21T01:54:03.401Z,14.53
2018-11-21T01:56:34.048Z,13.10
2018-11-21T01:59:05.039Z,14.00
2018-11-21T02:01:35.394Z,14.63
2018-11-21T02:04:05.960Z,14.90
2018-11-21T02:06:36.327Z,14.43
2018-11-21T02:09:10.100Z,12.73
2018-11-21T02:11:40.276Z,15.30
2018-11-21T02:14:13.286Z,14.33
2018-11-21T02:16:44.576Z,14.03
2018-11-21T02:19:17.197Z,14.90
2018-11-21T02:21:48.307Z,13.90
2018-11-21T02:24:21.372Z,14.00
2018-11-21T02:26:52.270Z,15.20
2018-11-21T02:29:23.323Z,13.93
2018-11-21T02:31:53.663Z,15.53
2018-11-21T02:34:24.514Z,15.20
2018-11-21T02:36:54.550Z,15.60
2018-11-21T02:39:26.461Z,15.73
2018-11-21T02:41:57.349Z,15.93
2018-11-21T02:44:28.420Z,15.10
2018-11-21T02:47:00.672Z,15.83
2018-11-21T02:49:31.163Z,15.32
2018-11-21T02:52:01.673Z,15.93
2018-11-21T02:54:32.518Z,17.77
2018-11-21T02:57:20.657Z,15.20
2018-11-21T03:00:17.100Z,16.53
2018-11-21T03:02:49.405Z,17.40
2018-11-21T03:05:20.343Z,15.85
2018-11-21T03:07:52.554Z,16.27
2018-11-21T03:10:25.229Z,17.40
2018-11-21T03:12:57.820Z,16.07
2018-11-21T03:15:29.439Z,17.20
2018-11-21T03:18:00.690Z,16.97
2018-11-21T03:20:30.682Z,18.27
2018-11-21T03:23:03.525Z,15.03
2018-11-21T03:25:34.398Z,17.83
2018-11-21T03:28:04.530Z,16.90
2018-11-21T03:30:35.563Z,17.90
2018-11-21T03:33:07.875Z,16.90
2018-11-21T03:35:39.478Z,16.20
2018-11-21T03:38:10.555Z,17.10
2018-11-21T03:40:40.658Z,17.40
2018-11-21T03:43:12.516Z,17.80
2018-11-21T03:45:42.861Z,18.62
2018-11-21T03:48:15.125Z,17.40
2018-11-21T03:50:45.321Z,16.30
2018-11-21T03:53:15.645Z,18.87
2018-11-21T03:55:46.460Z,17.17
2018-11-21T03:58:16.724Z,16.40
2018-11-21T04:00:47.551Z,17.73
2018-11-21T04:03:17.701Z,18.60
2018-11-21T04:05:48.680Z,19.50
2018-11-21T04:08:19.670Z,18.10
2018-11-21T04:10:49.695Z,18.60
2018-11-21T04:13:20.880Z,19.70
2018-11-21T04:15:51.460Z,21.10
2018-11-21T04:18:21.771Z,19.63
2018-11-21T04:20:53.103Z,22.40
2018-11-21T04:23:23.640Z,22.62
2018-11-21T04:25:53.735Z,24.87
2018-11-21T04:28:24.765Z,25.70
2018-11-21T04:30:54.801Z,24.73
2018-11-21T04:33:25.904Z,23.43
2018-11-21T04:35:57.031Z,24.53
2018-11-21T04:38:27.565Z,24.40
2018-11-21T04:40:58.012Z,23.67
2018-11-21T04:43:28.528Z,24.10
2018-11-21T04:45:58.959Z,23.80
2018-11-21T04:48:28.970Z,23.60
2018-11-21T04:51:00.038Z,24.37
2018-11-21T04:53:30.170Z,22.43
2018-11-21T04:56:01.092Z,25.43
2018-11-21T04:58:31.624Z,22.50
2018-11-21T05:01:02.157Z,22.90
2018-11-21T05:03:32.971Z,24.20
2018-11-21T05:06:03.589Z,23.77
2018-11-21T05:08:34.156Z,22.50
2018-11-21T05:11:04.657Z,23.62
2018-11-21T05:13:34.979Z,23.83
2018-11-21T05:16:06.988Z,24.77
2018-11-21T05:18:39.133Z,24.47
2018-11-21T05:21:10.483Z,24.73
2018-11-21T05:23:41.266Z,25.48
2018-11-21T05:26:12.225Z,26.37
2018-11-21T05:28:44.234Z,29.37
2018-11-21T05:31:17.539Z,30.17
2018-11-21T05:33:47.765Z,31.80
2018-11-21T05:36:20.268Z,32.90
2018-11-21T05:38:51.248Z,31.50
2018-11-21T05:41:22.205Z,30.07
2018-11-21T05:43:53.236Z,29.93
2018-11-21T05:46:24.175Z,29.10
2018-11-21T05:48:54.204Z,27.37
2018-11-21T05:51:25.225Z,26.17
2018-11-21T05:53:55.263Z,25.03
2018-11-21T05:56:26.189Z,25.57
2018-11-21T05:58:58.358Z,25.77
2018-11-21T06:01:30.121Z,25.13
2018-11-21T06:04:01.173Z,25.67
2018-11-21T06:06:31.282Z,25.60
2018-11-21T06:09:07.236Z,25.40
2018-11-21T06:11:39.405Z,22.65
2018-11-21T06:14:12.366Z,22.73
2018-11-21T06:16:43.313Z,21.10
2018-11-21T06:19:13.335Z,21.97
2018-11-21T06:21:44.282Z,20.85
2018-11-21T06:24:15.339Z,21.23
2018-11-21T06:26:53.959Z,19.97
2018-11-21T06:29:25.510Z,19.85
2018-11-21T06:31:56.145Z,21.07
2018-11-21T06:34:29.137Z,18.60
2018-11-21T06:36:57.528Z,17.30
2018-11-21T06:39:28.337Z,18.12
2018-11-21T06:41:58.369Z,17.27
2018-11-21T06:44:29.594Z,16.90
2018-11-21T06:47:00.342Z,15.27
2018-11-21T06:49:31.122Z,15.70
2018-11-21T06:52:01.568Z,16.07
2018-11-21T06:54:32.432Z,12.97
2018-11-21T06:57:03.495Z,13.93
2018-11-21T06:59:33.685Z,16.03
2018-11-21T07:02:04.472Z,14.58
2018-11-21T07:04:34.536Z,15.30
2018-11-21T07:07:05.422Z,13.93
2018-11-21T07:09:35.989Z,15.80
2018-11-21T07:12:06.279Z,14.60
2018-11-21T07:14:36.733Z,14.40
2018-11-21T07:17:07.385Z,15.20
2018-11-21T07:19:37.464Z,14.27
2018-11-21T07:22:08.540Z,15.13
2018-11-21T07:24:39.295Z,15.00
2018-11-21T07:27:09.845Z,15.53
2018-11-21T07:29:40.433Z,15.60
2018-11-21T07:32:10.497Z,15.10
2018-11-21T07:34:41.602Z,17.67
2018-11-21T07:37:12.286Z,15.80
2018-11-21T07:39:42.743Z,15.37
2018-11-21T07:42:13.685Z,16.23
2018-11-21T07:44:44.488Z,14.73
2018-11-21T07:47:14.645Z,15.75
2018-11-21T07:49:45.745Z,17.20
2018-11-21T07:52:16.509Z,15.97
2018-11-21T07:54:46.636Z,17.93
2018-11-21T07:57:41.470Z,16.70
2018-11-21T08:01:02.012Z,16.13
2018-11-21T08:03:41.727Z,18.42
2018-11-21T08:06:33.965Z,16.40
2018-11-21T08:09:26.796Z,14.90
2018-11-21T08:12:19.596Z,17.23
2018-11-21T08:15:08.167Z,18.47
2018-11-21T08:17:55.927Z,16.73
2018-11-21T08:21:04.114Z,17.67
2018-11-21T08:23:55.702Z,19.20
2018-11-21T08:26:42.944Z,18.87
2018-11-21T08:29:14.046Z,19.20
2018-11-21T08:31:46.813Z,20.27
2018-11-21T08:34:17.875Z,21.60
2018-11-21T08:36:47.906Z,21.13
2018-11-21T08:39:19.087Z,23.05
2018-11-21T08:41:49.906Z,22.53
2018-11-21T08:44:19.997Z,22.63
2018-11-21T08:46:51.057Z,23.53
2018-11-21T08:49:23.942Z,22.57
2018-11-21T08:51:54.630Z,21.83
2018-11-21T08:54:26.114Z,23.70
2018-11-21T08:56:58.023Z,23.20
2018-11-21T08:59:29.981Z,24.63
2018-11-21T09:02:00.943Z,24.63
2018-11-21T09:04:32.110Z,24.20
2018-11-21T09:07:04.113Z,22.90
2018-11-21T09:09:36.167Z,21.83
2018-11-21T09:12:08.776Z,24.27
2018-11-21T09:14:37.927Z,22.63
2018-11-21T09:17:08.870Z,21.70
2018-11-21T09:19:39.017Z,21.63
2018-11-21T09:22:10.166Z,21.57
2018-11-21T09:24:40.648Z,20.00
2018-11-21T09:27:11.574Z,22.20
2018-11-21T09:29:41.698Z,20.57
2018-11-21T09:32:12.143Z,21.93
2018-11-21T09:34:42.830Z,19.73
2018-11-21T09:37:13.176Z,22.07
2018-11-21T09:39:44.128Z,19.87
2018-11-21T09:42:14.585Z,20.87
2018-11-21T09:44:45.184Z,21.17
2018-11-21T09:47:15.247Z,20.13
2018-11-21T09:49:46.159Z,20.20
2018-11-21T09:52:16.233Z,18.83
2018-11-21T09:54:47.190Z,19.07
2018-11-21T09:57:19.847Z,17.65
2018-11-21T09:59:52.373Z,19.47
2018-11-21T10:02:59.447Z,18.63
2018-11-21T10:05:32.253Z,18.87
2018-11-21T10:08:18.162Z,17.73
2018-11-21T10:10:48.226Z,17.75
2018-11-21T10:13:19.237Z,18.60
2018-11-21T10:15:50.604Z,17.90
2018-11-21T10:18:21.262Z,18.70
2018-11-21T10:20:51.325Z,19.43
2018-11-21T10:23:22.315Z,15.45
2018-11-21T10:25:53.420Z,16.93
2018-11-21T10:28:24.294Z,16.90
2018-11-21T10:30:54.351Z,14.97
2018-11-21T10:33:25.328Z,17.20
2018-11-21T10:35:55.419Z,16.13
2018-11-21T10:38:26.395Z,17.77
2018-11-21T10:40:58.755Z,15.37
2018-11-21T10:43:30.922Z,15.10
2018-11-21T10:46:00.982Z,15.57
2018-11-21T10:48:31.352Z,14.43
2018-11-21T10:51:01.766Z,16.53
2018-11-21T10:53:32.517Z,14.97
2018-11-21T10:56:03.495Z,15.07
2018-11-21T10:58:33.630Z,16.33
2018-11-21T11:01:21.523Z,14.90
2018-11-21T11:03:55.024Z,15.30
2018-11-21T11:06:44.597Z,14.80
2018-11-21T11:09:39.416Z,15.90
2018-11-21T11:12:21.387Z,15.47
2018-11-21T11:15:14.311Z,15.67
2018-11-21T11:18:12.747Z,16.53
2018-11-21T11:21:02.155Z,16.03
2018-11-21T11:24:07.919Z,16.80
2018-11-21T11:27:07.400Z,16.80
2018-11-21T11:29:56.613Z,16.17
2018-11-21T11:32:48.551Z,16.97
2018-11-21T11:35:44.691Z,18.10
2018-11-21T11:38:51.799Z,18.50
2018-11-21T11:41:52.679Z,18.27
2018-11-21T11:44:41.660Z,18.20
2018-11-21T11:47:30.211Z,19.13
2018-11-21T11:50:19.871Z,20.87
2018-11-21T11:53:08.404Z,19.40
2018-11-21T11:55:56.730Z,19.10
2018-11-21T11:58:49.956Z,20.53
2018-11-21T12:01:44.836Z,21.30
2018-11-21T12:04:34.291Z,21.75
2018-11-21T12:07:35.490Z,22.70
2018-11-21T12:10:24.148Z,23.60
2018-11-21T12:13:20.219Z,23.97
2018-11-21T12:16:11.914Z,20.87
2018-11-21T12:19:09.955Z,23.53
2018-11-21T12:22:04.509Z,23.20
2018-11-21T12:24:44.188Z,27.70
2018-11-21T12:27:27.048Z,26.93
2018-11-21T12:30:31.109Z,26.47
2018-11-21T12:33:25.571Z,26.87
2018-11-21T12:36:13.119Z,28.23
2018-11-21T12:39:11.897Z,26.83
2018-11-21T12:42:04.495Z,27.80
2018-11-21T12:45:11.045Z,27.50
2018-11-21T12:47:53.603Z,30.20
2018-11-21T12:50:58.300Z,30.17
2018-11-21T12:53:48.929Z,31.85
2018-11-21T12:56:31.155Z,32.20
2018-11-21T12:59:20.928Z,31.17
2018-11-21T13:02:08.600Z,33.15
2018-11-21T13:04:57.079Z,33.40
2018-11-21T13:07:45.509Z,32.80
2018-11-21T13:10:38.101Z,36.43
2018-11-21T13:13:26.393Z,35.60
2018-11-21T13:16:13.818Z,34.63
2018-11-21T13:19:10.009Z,36.93
2018-11-21T13:21:57.970Z,38.53
2018-11-21T13:24:48.416Z,36.97
2018-11-21T13:27:37.958Z,37.93
2018-11-21T13:30:37.058Z,38.43
2018-11-21T13:33:25.035Z,38.13
2018-11-21T13:36:13.032Z,39.10
2018-11-21T13:39:07.433Z,37.50
2018-11-21T13:41:57.988Z,37.53
2018-11-21T13:44:41.115Z,40.97
2018-11-21T13:47:30.296Z,40.93
2018-11-21T13:50:17.517Z,41.33
2018-11-21T13:53:17.660Z,42.63
2018-11-21T13:55:50.058Z,41.67
2018-11-21T13:58:20.399Z,42.40
2018-11-21T14:00:51.336Z,43.30
2018-11-21T14:03:22.176Z,45.78
2018-11-21T14:05:52.349Z,41.73
2018-11-21T14:08:23.398Z,44.07
2018-11-21T14:10:54.001Z,46.47
2018-11-21T14:13:24.467Z,43.00
2018-11-21T14:15:55.124Z,48.67
2018-11-21T14:18:25.445Z,48.33
2018-11-21T14:20:55.534Z,46.40
2018-11-21T14:23:26.381Z,46.07
2018-11-21T14:25:57.285Z,44.90
2018-11-21T14:28:27.338Z,45.70
2018-11-21T14:30:58.478Z,44.43
2018-11-21T14:33:29.396Z,45.10
2018-11-21T14:36:00.021Z,46.10
2018-11-21T14:38:30.481Z,44.90
2018-11-21T14:41:01.339Z,47.20
2018-11-21T14:43:31.407Z,43.92
2018-11-21T14:46:01.585Z,47.27
2018-11-21T14:48:33.501Z,46.48
2018-11-21T14:51:04.623Z,48.70
2018-11-21T14:53:34.607Z,49.60
2018-11-21T14:56:06.037Z,47.37
2018-11-21T14:58:36.345Z,49.07
2018-11-21T15:01:07.172Z,48.10
2018-11-21T15:03:37.749Z,48.40
2018-11-21T15:06:08.847Z,47.33
2018-11-21T15:08:39.495Z,50.60
2018-11-21T15:11:10.190Z,49.83
2018-11-21T15:13:40.277Z,49.30
2018-11-21T15:16:10.892Z,50.70
2018-11-21T15:18:41.519Z,46.97
2018-11-21T15:21:16.456Z,50.17
2018-11-21T15:23:42.683Z,49.10
2018-11-21T15:26:13.327Z,49.13
2018-11-21T15:28:43.862Z,47.13
2018-11-21T15:31:14.437Z,47.37
2018-11-21T15:33:44.673Z,47.90
2018-11-21T15:36:15.575Z,48.20
2018-11-21T15:38:45.663Z,51.27
2018-11-21T15:41:16.784Z,46.83
2018-11-21T15:43:47.446Z,46.10
2018-11-21T15:46:17.757Z,46.53
2018-11-21T15:48:48.770Z,48.60
2018-11-21T15:51:19.452Z,45.60
2018-11-21T15:53:49.835Z,43.57
2018-11-21T15:56:19.890Z,45.70
2018-11-21T15:58:50.663Z,48.40
2018-11-21T16:01:21.714Z,47.60
2018-11-21T16:03:52.822Z,45.83
2018-11-21T16:06:23.945Z,47.27
2018-11-21T16:08:54.633Z,45.23
2018-11-21T16:11:24.935Z,43.70
2018-11-21T16:13:55.312Z,44.13
2018-11-21T16:16:25.408Z,45.40
2018-11-21T16:18:55.469Z,45.17
2018-11-21T16:21:27.867Z,45.17
2018-11-21T16:23:59.032Z,46.47
2018-11-21T16:26:29.574Z,44.30
2018-11-21T16:29:00.014Z,43.30
2018-11-21T16:31:30.514Z,43.53
2018-11-21T16:34:01.927Z,46.57
2018-11-21T16:36:31.971Z,47.30
2018-11-21T16:39:02.274Z,46.20
2018-11-21T16:41:32.902Z,46.50
2018-11-21T16:44:03.593Z,42.97
2018-11-21T16:46:34.076Z,45.00
2018-11-21T16:49:05.091Z,43.52
2018-11-21T16:51:35.342Z,46.83
2018-11-21T16:54:06.071Z,46.80
2018-11-21T16:56:36.591Z,45.87
2018-11-21T16:59:07.102Z,47.07
2018-11-21T17:01:38.357Z,47.97
2018-11-21T17:04:08.646Z,49.43
2018-11-21T17:06:39.382Z,47.93
2018-11-21T17:09:11.917Z,47.97
2018-11-21T17:11:44.239Z,47.97
2018-11-21T17:14:17.099Z,47.13
2018-11-21T17:16:48.083Z,49.60
2018-11-21T17:19:20.849Z,49.20
2018-11-21T17:21:53.159Z,47.47
2018-11-21T17:24:25.171Z,50.17
2018-11-21T17:26:55.793Z,47.67
2018-11-21T17:29:28.379Z,44.03
2018-11-21T17:31:59.344Z,45.73
2018-11-21T17:34:31.391Z,43.10
2018-11-21T17:37:02.352Z,47.65
2018-11-21T17:39:33.314Z,44.37
2018-11-21T17:42:04.492Z,42.33
2018-11-21T17:44:34.550Z,42.97
2018-11-21T17:47:05.428Z,43.87
2018-11-21T17:49:35.650Z,43.00
2018-11-21T17:52:06.309Z,44.17
2018-11-21T17:54:36.536Z,43.50
2018-11-21T17:57:07.468Z,43.43
2018-11-21T17:59:37.989Z,42.80
2018-11-21T18:02:08.251Z,43.65
2018-11-21T18:04:39.196Z,40.98
2018-11-21T18:07:09.946Z,42.60
2018-11-21T18:09:40.294Z,40.12
2018-11-21T18:12:10.389Z,40.33
2018-11-21T18:14:41.380Z,41.63
2018-11-21T18:17:12.259Z,42.07
2018-11-21T18:19:42.357Z,42.10
2018-11-21T18:22:13.584Z,41.90
2018-11-21T18:24:44.523Z,43.97
2018-11-21T18:27:15.127Z,44.33
2018-11-21T18:29:45.548Z,44.87
2018-11-21T18:32:16.486Z,43.27
2018-11-21T18:34:47.179Z,42.80
2018-11-21T18:37:17.613Z,41.28
2018-11-21T18:39:48.379Z,43.40
2018-11-21T18:42:19.405Z,41.73
2018-11-21T18:44:49.583Z,40.10
2018-11-21T18:47:20.452Z,40.77
2018-11-21T18:49:50.694Z,41.20
2018-11-21T18:52:21.391Z,42.40
2018-11-21T18:54:51.920Z,39.60
2018-11-21T18:58:19.461Z,43.20
2018-11-21T19:00:52.450Z,40.13
2018-11-21T19:03:23.711Z,40.73
2018-11-21T19:05:54.785Z,42.57
2018-11-21T19:08:25.176Z,41.98
2018-11-21T19:10:55.683Z,38.90
2018-11-21T19:13:27.307Z,43.33
2018-11-21T19:16:02.264Z,41.60
2018-11-21T19:18:33.889Z,38.87
2018-11-21T19:21:06.206Z,40.63
2018-11-21T19:23:37.797Z,41.37
2018-11-21T19:26:08.661Z,43.17
2018-11-21T19:28:39.732Z,39.90
2018-11-21T19:31:13.230Z,41.77
2018-11-21T19:33:43.735Z,41.47
2018-11-21T19:36:14.877Z,43.13
2018-11-21T19:38:45.891Z,43.40
2018-11-21T19:41:18.723Z,45.27
2018-11-21T19:43:49.743Z,44.90
2018-11-21T19:46:20.560Z,43.97
2018-11-21T19:48:50.751Z,41.10
2018-11-21T19:51:21.854Z,43.20
2018-11-21T19:53:52.687Z,46.23
2018-11-21T19:56:22.788Z,47.10
2018-11-21T19:58:53.818Z,45.33
2018-11-21T20:01:24.084Z,44.00
2018-11-21T20:03:54.973Z,45.57
2018-11-21T20:06:25.680Z,45.80
2018-11-21T20:08:55.664Z,44.77
2018-11-21T20:11:26.713Z,45.80
2018-11-21T20:13:57.410Z,44.27
2018-11-21T20:16:27.910Z,46.53
2018-11-21T20:18:58.665Z,46.73
2018-11-21T20:21:28.955Z,49.10
2018-11-21T20:23:59.056Z,43.87
2018-11-21T20:26:29.957Z,46.37
2018-11-21T20:29:01.315Z,45.43
2018-11-21T20:31:31.837Z,47.30
2018-11-21T20:34:03.044Z,47.50
2018-11-21T20:36:33.329Z,47.43
2018-11-21T20:39:06.960Z,48.10
2018-11-21T20:41:38.073Z,47.50
2018-11-21T20:44:09.019Z,46.80
2018-11-21T20:46:39.070Z,44.30
2018-11-21T20:49:11.528Z,46.10
2018-11-21T20:51:41.007Z,46.20
2018-11-21T20:54:12.129Z,46.50
2018-11-21T20:56:44.979Z,47.07
2018-11-21T20:59:16.111Z,44.60
2018-11-21T21:01:46.131Z,45.10
2018-11-21T21:04:17.232Z,43.48
2018-11-21T21:06:50.094Z,42.27
2018-11-21T21:09:21.089Z,42.40
2018-11-21T21:11:52.034Z,44.90
2018-11-21T21:14:22.105Z,42.53
2018-11-21T21:16:53.163Z,44.27
2018-11-21T21:19:24.206Z,44.08
2018-11-21T21:21:55.763Z,42.10
2018-11-21T21:24:28.112Z,39.77
2018-11-21T21:26:59.122Z,43.40
2018-11-21T21:29:29.142Z,40.58
2018-11-21T21:32:02.092Z,39.87
2018-11-21T21:34:33.201Z,44.50
2018-11-21T21:37:04.355Z,38.83
2018-11-21T21:39:35.008Z,41.17
2018-11-21T21:42:05.320Z,41.87
2018-11-21T21:44:36.143Z,38.93
2018-11-21T21:47:07.258Z,42.47
2018-11-21T21:49:37.987Z,41.37
2018-11-21T21:52:08.235Z,42.30
2018-11-21T21:54:39.481Z,40.77
2018-11-21T21:57:09.933Z,42.97
2018-11-21T21:59:40.981Z,42.57
2018-11-21T22:02:11.322Z,44.50
2018-11-21T22:04:42.326Z,45.83
2018-11-21T22:07:13.383Z,44.13
2018-11-21T22:09:43.833Z,47.27
2018-11-21T22:12:14.494Z,44.80
2018-11-21T22:14:44.962Z,44.03
2018-11-21T22:17:15.449Z,42.10
2018-11-21T22:19:46.209Z,44.42
2018-11-21T22:22:16.293Z,42.80
2018-11-21T22:24:47.128Z,43.45
2018-11-21T22:27:17.400Z,43.93
2018-11-21T22:29:48.320Z,42.60
2018-11-21T22:32:19.244Z,42.30
2018-11-21T22:34:49.397Z,46.17
2018-11-21T22:37:20.356Z,41.60
2018-11-21T22:39:50.448Z,43.10
2018-11-21T22:42:21.491Z,42.43
2018-11-21T22:44:52.235Z,43.13
2018-11-21T22:47:22.562Z,41.05
2018-11-21T22:49:53.538Z,43.53
2018-11-21T22:52:24.551Z,42.03
2018-11-21T22:54:55.270Z,40.37
2018-11-21T22:57:26.333Z,40.83
2018-11-21T22:59:55.969Z,42.45
2018-11-21T23:02:27.472Z,40.17
2018-11-21T23:04:58.632Z,36.57
2018-11-21T23:07:29.113Z,39.53
2018-11-21T23:09:59.439Z,38.25
2018-11-21T23:12:30.512Z,39.17
2018-11-21T23:15:00.992Z,39.20
2018-11-21T23:17:31.567Z,38.30
2018-11-21T23:20:02.459Z,37.30
2018-11-21T23:22:32.735Z,36.17
2018-11-21T23:25:03.139Z,35.43
2018-11-21T23:27:33.707Z,35.90
2018-11-21T23:30:04.971Z,36.25
2018-11-21T23:32:34.972Z,35.52
2018-11-21T23:35:06.048Z,35.97
2018-11-21T23:37:36.172Z,36.40
2018-11-21T23:40:08.341Z,35.77
2018-11-21T23:42:40.984Z,33.77
2018-11-21T23:45:14.925Z,34.45
2018-11-21T23:47:46.141Z,34.97
2018-11-21T23:50:18.725Z,35.57
2018-11-21T23:52:48.819Z,33.57
